AirNav   Air Wisconsin pilot careers
 
 609 users online  

34R Hallettsville Municipal Airport
Hallettsville, Texas, USA

GOING TO HALLETTSVILLE?


FAA INFORMATION EFFECTIVE 07 DECEMBER 2017

Location

FAA Identifier: 34R
Lat/Long: 29-23-23.8500N / 096-57-21.8150W
29-23.397500N / 096-57.363583W
29.3899583 / -96.9560597
(estimated)
Elevation: 277.7 ft. / 84.6 m (surveyed)
Variation: 07E (1985)
From city: 3 miles S of HALLETTSVILLE, TX
Time zone: UTC -6 (UTC -5 during Daylight Saving Time)
Zip code: 77964

Airport Operations

Airport use: Open to the public
Activation date: 03/1967
Control tower: no
ARTCC: HOUSTON CENTER
FSS: MONTGOMERY COUNTY FLIGHT SERVICE STATION
FOR FP FILING CALL CXO FSS 1-800-833-5602
NOTAMs facility: CXO (NOTAM-D service available)
Attendance: UNATNDD
Wind indicator: lighted
Segmented circle: yes
Lights: DUSK-DAWN. MIRL RY 17/35 PRESET LOW INTST; TO INCR INTST ACTVT - CTAF.
Beacon: white-green (lighted land airport)
Operates sunset to sunrise.

Airport Communications

CTAF: 122.9

Nearby radio navigation aids

VOR radial/distance  VOR name  Freq  Var
VCTr356/29.4VICTORIA VOR/DME109.0006E
ELAr236/37.1EAGLE LAKE VOR/DME116.4008E
IDUr203/39.7INDUSTRY VORTAC110.2008E

 
NDB name  Hdg/Dist  Freq  Var  ID
YOAKUM058/10.635006EOKT --- -.- -

Airport Services

Fuel available: 100LL
24 HR SELF-SERVE CREDIT CARD OPN FOR FUEL.
Parking: tiedowns
Bottled oxygen: NONE
Bulk oxygen: NONE

Runway Information

Runway 17/35

Dimensions: 3210 x 60 ft. / 978 x 18 m
Surface: asphalt, in fair condition
Weight bearing capacity: 
Single wheel: 7.0
Runway edge lights: medium intensity
RUNWAY 17  RUNWAY 35
Latitude: 29-23.662333N29-23.132667N
Longitude: 096-57.368833W096-57.358333W
Elevation: 277.7 ft.262.4 ft.
Gradient: 0.5%0.5%
Traffic pattern: leftleft
Runway heading: 172 magnetic, 179 true352 magnetic, 359 true
Markings: basic, in fair conditionbasic, in fair condition
Touchdown point: yes, no lightsyes, no lights
Obstructions: 42 ft. trees, 731 ft. from runway, 169 ft. right of centerline, 12:1 slope to clear25 ft. trees, 406 ft. from runway, 64 ft. right of centerline, 8:1 slope to clear

Airport Ownership and Management from official FAA records

Ownership: Publicly-owned
Owner: CITY OF HALLETTSVILLE
101 N MAIN
HALLETTSVILLE, TX 77964
Phone 361-798-3681
Manager: OTTO CERVEWKA
101 N MAIN
HALLETTSVILLE, TX 77964
Phone 361-798-2201
DIRECTOR OF PUBLIC WORKS.

Airport Operational Statistics

Aircraft based on the field: 7
Single engine airplanes: 7
    
Aircraft operations: avg 40/week *
67% local general aviation
33% transient general aviation
* for 12-month period ending 25 January 2017

Instrument Procedures

There are no published instrument procedures at 34R.

Some nearby airports with instrument procedures:

T85 - Yoakum Municipal Airport (11 nm SW)
26R - Jackson County Airport (30 nm SE)
3T5 - Fayette Regional Air Center Airport (31 nm N)
KVCT - Victoria Regional Airport (32 nm S)
KELA - Eagle Lake Airport (35 nm E)
 
Loc | Ops | Rwys | IFR | FBO | Links
Com | Nav | Svcs | Stats | Notes


 
Area around 34R (Hallettsville Municipal Airport)
 
Road maps at: MapQuest Bing Google
 
Aerial photo
WARNING: Photo may not be current or correct
Aerial photo of 34R (Hallettsville Municipal Airport)
Do you have a better or more recent aerial photo of Hallettsville Municipal Airport that you would like to share? If so, please send us your photo.

 
Sectional chart

 
Airport distance calculator
Flying to Hallettsville Municipal Airport? Find the distance to fly.

From to 34R

Sunrise and sunset
Times for 17-Dec-2017
 Local
(UTC-6)
 Zulu
(UTC)
Morning civil twilight06:5112:51
Sunrise07:1713:17
Sunset17:3123:31
Evening civil twilight17:5723:57

Current date and time
Zulu (UTC)  18-Dec-2017 04:52:27
Local (UTC-6)  17-Dec-2017 22:52:27
 
METAR
K66R 
27nm NE 
180435Z AUTO 00000KT 10SM BKN022 OVC028 12/11 A3013 RMK AO2 T01190106
KT20 
28nm W 
180435Z AUTO 00000KT 3SM BR OVC005 11/11 A3012 RMK AO2 T01120112
K3T5 
31nm N 
180435Z AUTO 00000KT 7SM OVC004 12/11 A3012 RMK AO2 T01190112
KVCT 
31nm S 
180351Z AUTO 34005KT 7SM OVC012 12/11 A3012 RMK AO2 SLP198 T01220111
KELA 
35nm E 
180435Z AUTO 02003KT 10SM BKN022 OVC029 12/11 A3012 RMK AO2 T01220113
KARM 
43nm E 
180435Z AUTO 36004KT 10SM BKN022 OVC029 13/12 A3012 RMK AO2 T01300115
KPKV 
46nm S 
180435Z AUTO 36006KT 10SM OVC016 13/12 A3011 RMK AO2 T01280115
KGYB 
47nm N 
180435Z AUTO 00000KT 10SM OVC007 11/10 A3013 RMK AO2 T01050096
TAF
KVCT 
31nm S 
171740Z 1718/1818 VRB03KT P6SM OVC004 FM172100 VRB03KT P6SM BKN009 OVC012 FM180400 02004KT 6SM BR OVC008 FM180800 04005KT 3SM BR VCSH OVC004 FM181500 04006KT P6SM VCSH OVC006 PROB30 1816/1818 5SM -SHRA OVC004
NOTAMs
Click for the latest NOTAMs
NOTAMs are issued by the DoD/FAA and will open in a separate window not controlled by AirNav.

 

 
 

FBO, Fuel Providers, and Aircraft Ground Support

  
 Business Name 
 
 Contact 
 
 Services / Description 
 
Fuel Prices
 
Comments
  
Hallettsville Municipal Airport 361-798-3681
no information available

If you are affiliated with Hallettsville Municipal Airport and would like to show here your services, contact info, web link, logo, and more, click here
100LL
SS $3.64 
 Updated 04-Dec-2017
 
   3 read write
SS=Self service
Update Fuel Prices
 

Would you like to see your business listed on this page?

 If your business provides an interesting product or service to pilots, flight crews, aircraft, or users of the Hallettsville Municipal Airport, you should consider listing it here.  To start the listing process, click on the button below
 
Add a business
 

Other Pages about Hallettsville Municipal Airport

Update a link
 
Copyright © AirNav, LLC. All rights reserved. Privacy Policy  Contact